createdAt,value
2018-04-24T00:00:33.411Z,28.50
2018-04-24T00:03:02.514Z,26.70
2018-04-24T00:05:31.575Z,26.90
2018-04-24T00:08:00.568Z,26.00
2018-04-24T00:10:28.873Z,27.60
2018-04-24T00:12:57.180Z,26.00
2018-04-24T00:15:25.605Z,27.00
2018-04-24T00:17:53.879Z,26.27
2018-04-24T00:20:22.213Z,25.40
2018-04-24T00:22:51.265Z,24.20
2018-04-24T00:25:19.525Z,27.73
2018-04-24T00:27:47.827Z,24.00
2018-04-24T00:30:16.875Z,23.23
2018-04-24T00:32:46.005Z,22.77
2018-04-24T00:35:14.260Z,24.23
2018-04-24T00:37:42.562Z,25.90
2018-04-24T00:40:10.863Z,24.73
2018-04-24T00:42:39.178Z,24.23
2018-04-24T00:45:07.455Z,25.73
2018-04-24T00:47:35.762Z,26.70
2018-04-24T00:50:04.033Z,24.60
2018-04-24T00:52:32.311Z,23.20
2018-04-24T00:55:00.618Z,24.37
2018-04-24T00:57:29.738Z,25.80
2018-04-24T00:59:58.035Z,23.30
2018-04-24T01:02:26.330Z,24.10
2018-04-24T01:04:54.607Z,23.87
2018-04-24T01:07:22.894Z,24.10
2018-04-24T01:09:51.222Z,24.10
2018-04-24T01:12:20.293Z,24.80
2018-04-24T01:14:48.565Z,23.70
2018-04-24T01:17:16.893Z,24.83
2018-04-24T01:19:45.990Z,25.00
2018-04-24T01:22:14.344Z,25.83
2018-04-24T01:24:42.627Z,27.83
2018-04-24T01:27:10.899Z,24.87
2018-04-24T01:29:39.198Z,30.13
2018-04-24T01:32:08.249Z,25.37
2018-04-24T01:34:36.558Z,26.27
2018-04-24T01:37:04.825Z,25.17
2018-04-24T01:39:33.116Z,23.87
2018-04-24T01:42:03.090Z,25.30
2018-04-24T01:44:31.390Z,23.57
2018-04-24T01:46:59.669Z,24.77
2018-04-24T01:49:27.994Z,24.80
2018-04-24T01:51:56.256Z,26.47
2018-04-24T01:54:25.320Z,26.30
2018-04-24T01:56:53.616Z,23.00
2018-04-24T01:59:21.874Z,25.73
2018-04-24T02:01:50.182Z,25.60
2018-04-24T02:04:19.224Z,25.10
2018-04-24T02:06:47.514Z,22.50
2018-04-24T02:09:16.226Z,23.90
2018-04-24T02:11:44.535Z,23.50
2018-04-24T02:14:13.699Z,23.60
2018-04-24T02:16:41.953Z,22.50
2018-04-24T02:19:10.248Z,23.63
2018-04-24T02:21:38.519Z,25.40
2018-04-24T02:24:06.886Z,24.27
2018-04-24T02:26:35.247Z,22.40
2018-04-24T02:29:03.605Z,22.87
2018-04-24T02:31:31.906Z,25.33
2018-04-24T02:34:00.158Z,25.50
2018-04-24T02:36:28.478Z,24.13
2018-04-24T02:38:56.776Z,24.20
2018-04-24T02:41:25.069Z,25.37
2018-04-24T02:43:53.328Z,24.27
2018-04-24T02:46:21.629Z,23.33
2018-04-24T02:48:50.680Z,24.27
2018-04-24T02:51:18.974Z,23.77
2018-04-24T02:53:47.252Z,24.50
2018-04-24T02:56:15.798Z,23.70
2018-04-24T02:58:44.227Z,25.80
2018-04-24T03:01:12.504Z,24.13
2018-04-24T03:03:40.794Z,26.90
2018-04-24T03:06:09.074Z,29.07
2018-04-24T03:08:38.155Z,27.27
2018-04-24T03:11:06.410Z,23.10
2018-04-24T03:13:34.722Z,24.37
2018-04-24T03:16:03.022Z,25.90
2018-04-24T03:18:32.083Z,27.00
2018-04-24T03:21:00.329Z,25.17
2018-04-24T03:23:28.650Z,27.10
2018-04-24T03:25:56.926Z,25.30
2018-04-24T03:28:25.208Z,27.10
2018-04-24T03:30:53.498Z,26.30
2018-04-24T03:33:22.545Z,25.97
2018-04-24T03:35:50.841Z,24.80
2018-04-24T03:38:19.090Z,29.70
2018-04-24T03:40:47.385Z,25.50
2018-04-24T03:43:15.709Z,27.80
2018-04-24T03:45:44.777Z,27.20
2018-04-24T03:48:13.064Z,28.90
2018-04-24T03:50:41.334Z,29.00
2018-04-24T03:53:09.655Z,29.47
2018-04-24T03:55:37.936Z,27.20
2018-04-24T03:58:06.250Z,29.97
2018-04-24T04:00:34.509Z,29.23
2018-04-24T04:03:02.805Z,27.10
2018-04-24T04:05:31.057Z,28.47
2018-04-24T04:07:59.369Z,30.20
2018-04-24T04:10:27.646Z,31.33
2018-04-24T04:12:55.921Z,30.43
2018-04-24T04:15:24.345Z,29.50
2018-04-24T04:18:04.421Z,31.40
2018-04-24T04:20:44.500Z,29.57
2018-04-24T04:23:26.171Z,32.50
2018-04-24T04:25:55.330Z,29.47
2018-04-24T04:28:23.620Z,28.57
2018-04-24T04:30:52.698Z,30.97
2018-04-24T04:33:20.974Z,29.70
2018-04-24T04:35:49.295Z,31.10
2018-04-24T04:38:17.645Z,29.90
2018-04-24T04:40:45.926Z,29.60
2018-04-24T04:43:15.006Z,30.20
2018-04-24T04:45:44.062Z,31.80
2018-04-24T04:48:12.370Z,29.67
2018-04-24T04:50:40.655Z,29.10
2018-04-24T04:53:08.991Z,27.80
2018-04-24T04:55:37.246Z,27.63
2018-04-24T04:58:05.521Z,27.27
2018-04-24T05:00:33.819Z,29.60
2018-04-24T05:03:02.071Z,29.60
2018-04-24T05:05:31.144Z,29.47
2018-04-24T05:08:00.200Z,30.90
2018-04-24T05:10:29.041Z,28.33
2018-04-24T05:12:57.330Z,28.23
2018-04-24T05:15:26.389Z,27.87
2018-04-24T05:17:54.684Z,31.60
2018-04-24T05:20:22.969Z,29.10
2018-04-24T05:22:51.345Z,26.97
2018-04-24T05:25:19.632Z,27.90
2018-04-24T05:27:48.820Z,27.97
2018-04-24T05:30:17.133Z,25.93
2018-04-24T05:32:45.413Z,25.60
2018-04-24T05:35:14.482Z,27.00
2018-04-24T05:37:43.557Z,26.37
2018-04-24T05:40:12.611Z,26.40
2018-04-24T05:42:40.949Z,26.77
2018-04-24T05:45:09.266Z,24.93
2018-04-24T05:47:37.543Z,25.90
2018-04-24T05:50:05.882Z,25.30
2018-04-24T05:52:34.171Z,24.50
2018-04-24T05:55:03.225Z,23.57
2018-04-24T05:57:31.561Z,24.97
2018-04-24T05:59:59.889Z,23.53
2018-04-24T06:02:28.279Z,23.33
2018-04-24T06:04:56.606Z,24.17
2018-04-24T06:07:24.933Z,24.40
2018-04-24T06:09:53.232Z,31.40
2018-04-24T06:12:21.527Z,23.70
2018-04-24T06:14:49.850Z,22.30
2018-04-24T06:17:18.118Z,23.63
2018-04-24T06:19:46.421Z,19.30
2018-04-24T06:22:15.465Z,21.33
2018-04-24T06:24:43.790Z,21.20
2018-04-24T06:27:12.054Z,21.07
2018-04-24T06:29:40.345Z,20.97
2018-04-24T06:32:08.718Z,20.27
2018-04-24T06:34:37.040Z,20.23
2018-04-24T06:37:05.355Z,21.17
2018-04-24T06:39:33.638Z,19.93
2018-04-24T06:42:01.941Z,20.50
2018-04-24T06:44:30.233Z,20.57
2018-04-24T06:46:58.585Z,19.00
2018-04-24T06:49:26.858Z,20.10
2018-04-24T06:51:55.134Z,20.00
2018-04-24T06:54:23.559Z,24.00
2018-04-24T06:56:51.832Z,20.13
2018-04-24T06:59:20.181Z,20.70
2018-04-24T07:01:48.546Z,21.00
2018-04-24T07:04:16.853Z,22.37
2018-04-24T07:06:45.125Z,20.40
2018-04-24T07:09:13.397Z,18.83
2018-04-24T07:11:41.679Z,20.83
2018-04-24T07:14:09.980Z,22.90
2018-04-24T07:16:38.305Z,21.00
2018-04-24T07:19:06.589Z,21.37
2018-04-24T07:21:34.877Z,20.53
2018-04-24T07:24:03.138Z,19.63
2018-04-24T07:26:31.448Z,22.07
2018-04-24T07:28:59.733Z,22.13
2018-04-24T07:31:28.009Z,23.27
2018-04-24T07:33:56.303Z,23.20
2018-04-24T07:36:24.589Z,21.83
2018-04-24T07:38:52.901Z,22.50
2018-04-24T07:41:21.188Z,22.33
2018-04-24T07:43:49.480Z,21.50
2018-04-24T07:46:17.753Z,23.80
2018-04-24T07:48:46.096Z,22.00
2018-04-24T07:51:15.133Z,21.90
2018-04-24T07:53:43.410Z,21.07
2018-04-24T07:56:11.715Z,21.37
2018-04-24T07:58:40.039Z,22.27
2018-04-24T08:01:08.323Z,22.27
2018-04-24T08:03:36.634Z,18.77
2018-04-24T08:06:04.924Z,19.77
2018-04-24T08:08:33.200Z,18.23
2018-04-24T08:11:01.493Z,16.00
2018-04-24T08:13:29.825Z,15.33
2018-04-24T08:15:58.112Z,16.77
2018-04-24T08:18:26.501Z,17.30
2018-04-24T08:20:54.771Z,15.40
2018-04-24T08:23:23.059Z,14.73
2018-04-24T08:25:51.363Z,14.70
2018-04-24T08:28:19.686Z,14.90
2018-04-24T08:30:47.983Z,14.80
2018-04-24T08:33:16.299Z,14.47
2018-04-24T08:35:44.602Z,14.17
2018-04-24T08:38:13.652Z,14.10
2018-04-24T08:40:41.970Z,15.97
2018-04-24T08:43:11.024Z,16.47
2018-04-24T08:45:39.363Z,15.37
2018-04-24T08:48:07.690Z,17.23
2018-04-24T08:50:35.969Z,15.50
2018-04-24T08:53:04.321Z,17.07
2018-04-24T08:55:32.616Z,14.27
2018-04-24T08:58:00.962Z,15.30
2018-04-24T09:00:29.236Z,14.07
2018-04-24T09:02:58.325Z,15.17
2018-04-24T09:05:27.372Z,13.83
2018-04-24T09:07:55.710Z,13.20
2018-04-24T09:10:23.984Z,13.47
2018-04-24T09:12:52.261Z,15.37
2018-04-24T09:15:20.560Z,13.73
2018-04-24T09:17:48.844Z,13.70
2018-04-24T09:20:17.141Z,13.73
2018-04-24T09:22:45.501Z,12.90
2018-04-24T09:25:13.817Z,13.80
2018-04-24T09:27:42.127Z,13.67
2018-04-24T09:30:10.952Z,13.73
2018-04-24T09:32:39.250Z,12.87
2018-04-24T09:35:08.302Z,13.47
2018-04-24T09:37:36.632Z,12.30
2018-04-24T09:40:04.917Z,12.83
2018-04-24T09:42:33.246Z,12.57
2018-04-24T09:45:01.583Z,13.80
2018-04-24T09:47:29.911Z,12.00
2018-04-24T09:49:58.219Z,11.53
2018-04-24T09:52:26.522Z,11.40
2018-04-24T09:54:54.808Z,13.23
2018-04-24T09:57:23.125Z,11.13
2018-04-24T09:59:51.424Z,10.20
2018-04-24T10:02:19.720Z,9.20
2018-04-24T10:04:47.974Z,9.23
2018-04-24T10:07:16.247Z,9.30
2018-04-24T10:09:44.602Z,8.97
2018-04-24T10:12:13.633Z,9.60
2018-04-24T10:14:41.951Z,9.80
2018-04-24T10:17:11.084Z,11.07
2018-04-24T10:19:39.393Z,9.40
2018-04-24T10:22:07.695Z,9.53
2018-04-24T10:24:35.960Z,10.27
2018-04-24T10:27:04.242Z,9.43
2018-04-24T10:29:32.617Z,9.53
2018-04-24T10:32:00.915Z,9.87
2018-04-24T10:34:29.179Z,9.80
2018-04-24T10:36:58.215Z,8.93
2018-04-24T10:39:27.293Z,8.30
2018-04-24T10:41:56.335Z,7.80
2018-04-24T10:44:24.620Z,8.83
2018-04-24T10:46:52.896Z,9.77
2018-04-24T10:49:21.194Z,9.80
2018-04-24T10:51:49.578Z,8.70
2018-04-24T10:54:18.558Z,8.83
2018-04-24T10:56:46.841Z,9.07
2018-04-24T10:59:15.163Z,8.93
2018-04-24T11:01:43.491Z,8.67
2018-04-24T11:04:11.804Z,7.40
2018-04-24T11:06:40.138Z,7.40
2018-04-24T11:09:08.395Z,7.90
2018-04-24T11:11:36.699Z,8.03
2018-04-24T11:14:04.957Z,7.73
2018-04-24T11:16:33.314Z,8.27
2018-04-24T11:19:02.337Z,7.10
2018-04-24T11:21:30.695Z,8.97
2018-04-24T11:23:58.993Z,7.13
2018-04-24T11:26:27.311Z,6.10
2018-04-24T11:28:55.655Z,5.63
2018-04-24T11:31:23.913Z,6.10
2018-04-24T11:33:52.275Z,4.77
2018-04-24T11:36:21.294Z,5.10
2018-04-24T11:38:49.593Z,5.43
2018-04-24T11:41:17.946Z,5.13
2018-04-24T11:43:46.229Z,5.50
2018-04-24T11:46:15.259Z,6.93
2018-04-24T11:48:43.523Z,5.03
2018-04-24T11:51:11.847Z,6.60
2018-04-24T11:53:40.883Z,7.73
2018-04-24T11:56:09.181Z,5.10
2018-04-24T11:58:37.486Z,4.93
2018-04-24T12:01:05.817Z,5.40
2018-04-24T12:03:34.089Z,4.70
2018-04-24T12:06:03.184Z,4.73
2018-04-24T12:08:31.438Z,4.23
2018-04-24T12:11:00.515Z,3.63
2018-04-24T12:13:28.791Z,3.93
2018-04-24T12:15:57.072Z,4.33
2018-04-24T12:18:25.354Z,3.57
2018-04-24T12:20:54.455Z,3.87
2018-04-24T12:23:23.542Z,4.00
2018-04-24T12:25:51.812Z,5.77
2018-04-24T12:28:20.119Z,3.67
2018-04-24T12:30:49.150Z,4.20
2018-04-24T12:33:17.430Z,3.50
2018-04-24T12:35:45.752Z,3.90
2018-04-24T12:38:14.035Z,4.00
2018-04-24T12:40:42.333Z,4.27
2018-04-24T12:43:10.624Z,4.10
2018-04-24T12:45:38.963Z,3.60
2018-04-24T12:48:07.213Z,3.90
2018-04-24T12:50:35.514Z,3.57
2018-04-24T12:53:03.789Z,3.30
2018-04-24T12:55:32.045Z,2.93
2018-04-24T12:58:00.326Z,6.23
2018-04-24T13:00:28.596Z,3.87
2018-04-24T13:02:56.895Z,4.20
2018-04-24T13:05:25.151Z,3.30
2018-04-24T13:07:53.458Z,4.10
2018-04-24T13:10:21.806Z,3.80
2018-04-24T13:12:50.063Z,3.67
2018-04-24T13:15:18.362Z,3.27
2018-04-24T13:17:46.681Z,3.60
2018-04-24T13:20:15.080Z,3.93
2018-04-24T13:22:43.333Z,3.83
2018-04-24T13:25:11.625Z,3.90
2018-04-24T13:27:39.952Z,3.80
2018-04-24T13:30:08.254Z,5.40
2018-04-24T13:32:36.502Z,3.87
2018-04-24T13:35:04.757Z,3.30
2018-04-24T13:37:33.055Z,3.50
2018-04-24T13:40:01.400Z,3.43
2018-04-24T13:42:30.529Z,3.60
2018-04-24T13:44:59.023Z,3.20
2018-04-24T13:47:28.292Z,3.30
2018-04-24T13:49:56.629Z,3.20
2018-04-24T13:52:25.868Z,3.17
2018-04-24T13:54:54.250Z,3.30
2018-04-24T13:57:23.392Z,2.93
2018-04-24T13:59:52.728Z,2.90
2018-04-24T14:02:21.046Z,5.10
2018-04-24T14:04:49.422Z,3.30
2018-04-24T14:07:17.955Z,2.90
2018-04-24T14:09:47.122Z,3.33
2018-04-24T14:12:15.583Z,3.60
2018-04-24T14:14:43.862Z,3.07
2018-04-24T14:17:14.054Z,3.40
2018-04-24T14:19:43.367Z,3.30
2018-04-24T14:22:11.811Z,3.37
2018-04-24T14:24:42.191Z,3.60
2018-04-24T14:27:10.588Z,2.90
2018-04-24T14:29:39.035Z,3.30
2018-04-24T14:32:07.783Z,3.27
2018-04-24T14:34:36.318Z,4.63
2018-04-24T14:37:04.680Z,3.23
2018-04-24T14:39:33.264Z,3.30
2018-04-24T14:42:02.506Z,4.40
2018-04-24T14:44:30.945Z,3.00
2018-04-24T14:47:00.032Z,2.40
2018-04-24T14:49:28.570Z,2.33
2018-04-24T14:51:57.392Z,2.30
2018-04-24T14:54:25.912Z,2.20
2018-04-24T14:56:55.002Z,4.47
2018-04-24T14:59:23.486Z,2.47
2018-04-24T15:01:51.965Z,2.33
2018-04-24T15:04:20.408Z,2.47
2018-04-24T15:06:48.870Z,3.43
2018-04-24T15:09:17.235Z,2.53
2018-04-24T15:11:46.364Z,2.47
2018-04-24T15:14:14.765Z,2.20
2018-04-24T15:16:43.130Z,2.57
2018-04-24T15:19:11.888Z,2.23
2018-04-24T15:21:41.148Z,2.73
2018-04-24T15:24:10.395Z,2.63
2018-04-24T15:26:38.754Z,2.30
2018-04-24T15:29:07.198Z,4.30
2018-04-24T15:31:37.800Z,2.40
2018-04-24T15:34:07.847Z,3.13
2018-04-24T15:36:36.650Z,3.40
2018-04-24T15:39:06.117Z,3.43
2018-04-24T15:41:34.539Z,3.10
2018-04-24T15:44:03.083Z,2.50
2018-04-24T15:46:31.664Z,3.00
2018-04-24T15:49:00.297Z,2.80
2018-04-24T15:51:28.668Z,2.57
2018-04-24T15:53:57.104Z,2.40
2018-04-24T15:56:25.396Z,2.57
2018-04-24T15:58:53.710Z,2.50
2018-04-24T16:01:22.014Z,5.13
2018-04-24T16:03:50.358Z,2.40
2018-04-24T16:06:18.771Z,2.60
2018-04-24T16:08:47.800Z,2.50
2018-04-24T16:11:16.096Z,2.93
2018-04-24T16:13:44.469Z,2.97
2018-04-24T16:16:12.710Z,2.60
2018-04-24T16:18:41.787Z,3.17
2018-04-24T16:21:10.168Z,3.57
2018-04-24T16:23:38.580Z,3.30
2018-04-24T16:26:06.895Z,3.00
2018-04-24T16:28:36.153Z,3.63
2018-04-24T16:31:04.501Z,2.77
2018-04-24T16:33:32.965Z,4.90
2018-04-24T16:36:03.520Z,3.60
2018-04-24T16:38:32.731Z,3.07
2018-04-24T16:41:03.224Z,3.80
2018-04-24T16:43:31.502Z,4.47
2018-04-24T16:46:02.370Z,3.40
2018-04-24T16:48:30.778Z,5.23
2018-04-24T16:50:59.198Z,5.50
2018-04-24T16:53:27.550Z,4.80
2018-04-24T16:55:55.883Z,9.47
2018-04-24T16:58:24.185Z,3.57
2018-04-24T17:00:52.656Z,4.63
2018-04-24T17:03:20.942Z,4.80
2018-04-24T17:05:49.291Z,4.30
2018-04-24T17:08:17.685Z,4.20
2018-04-24T17:10:45.986Z,4.93
2018-04-24T17:13:14.329Z,3.87
2018-04-24T17:15:42.788Z,4.47
2018-04-24T17:18:11.117Z,4.07
2018-04-24T17:20:40.287Z,3.50
2018-04-24T17:23:09.737Z,4.37
2018-04-24T17:25:38.101Z,5.43
2018-04-24T17:28:06.474Z,6.10
2018-04-24T17:30:35.767Z,3.87
2018-04-24T17:33:04.112Z,3.40
2018-04-24T17:35:32.436Z,3.80
2018-04-24T17:38:00.874Z,3.23
2018-04-24T17:40:29.278Z,3.10
2018-04-24T17:42:57.615Z,3.17
2018-04-24T17:45:25.909Z,3.73
2018-04-24T17:47:54.305Z,5.57
2018-04-24T17:50:22.661Z,6.53
2018-04-24T17:52:51.226Z,4.50
2018-04-24T17:55:19.641Z,4.33
2018-04-24T17:57:48.123Z,5.50
2018-04-24T18:00:16.829Z,5.97
2018-04-24T18:02:45.141Z,3.67
2018-04-24T18:05:13.453Z,5.20
2018-04-24T18:07:41.866Z,9.07
2018-04-24T18:10:10.355Z,18.43
2018-04-24T18:12:39.006Z,6.07
2018-04-24T18:15:08.379Z,5.13
2018-04-24T18:17:36.702Z,5.57
2018-04-24T18:20:05.152Z,5.80
2018-04-24T18:22:34.115Z,5.17
2018-04-24T18:25:03.316Z,6.03
2018-04-24T18:27:32.529Z,6.97
2018-04-24T18:30:01.774Z,8.20
2018-04-24T18:32:35.850Z,9.23
2018-04-24T18:35:04.831Z,7.50
2018-04-24T18:37:34.904Z,5.77
2018-04-24T18:40:03.261Z,7.40
2018-04-24T18:42:31.647Z,7.30
2018-04-24T18:44:59.926Z,5.80
2018-04-24T18:47:28.250Z,5.10
2018-04-24T18:49:56.518Z,6.87
2018-04-24T18:52:24.856Z,10.70
2018-04-24T18:54:53.570Z,12.50
2018-04-24T18:57:23.061Z,13.00
2018-04-24T18:59:54.603Z,16.17
2018-04-24T19:02:24.220Z,14.30
2018-04-24T19:04:52.901Z,23.47
2018-04-24T19:07:22.350Z,15.50
2018-04-24T19:09:51.027Z,60.07
2018-04-24T19:12:20.141Z,48.80
2018-04-24T19:14:48.454Z,54.13
2018-04-24T19:17:16.841Z,30.37
2018-04-24T19:19:50.477Z,8.67
2018-04-24T19:22:18.832Z,11.03
2018-04-24T19:24:52.752Z,9.70
2018-04-24T19:27:21.337Z,11.83
2018-04-24T19:29:49.722Z,9.20
2018-04-24T19:32:23.545Z,8.50
2018-04-24T19:34:51.869Z,9.47
2018-04-24T19:37:21.271Z,8.63
2018-04-24T19:39:56.060Z,6.90
2018-04-24T19:42:24.741Z,6.97
2018-04-24T19:44:53.089Z,8.60
2018-04-24T19:47:21.421Z,7.60
2018-04-24T19:49:55.434Z,7.13
2018-04-24T19:52:23.827Z,8.00
2018-04-24T19:54:57.718Z,8.03
2018-04-24T19:57:26.135Z,7.50
2018-04-24T19:59:54.429Z,8.40
2018-04-24T20:02:23.574Z,11.20
2018-04-24T20:04:52.012Z,11.93
2018-04-24T20:07:20.377Z,13.40
2018-04-24T20:09:48.723Z,9.57
2018-04-24T20:12:17.830Z,10.27
2018-04-24T20:14:46.140Z,7.67
2018-04-24T20:17:15.470Z,9.80
2018-04-24T20:19:43.761Z,8.87
2018-04-24T20:22:12.224Z,9.30
2018-04-24T20:24:40.523Z,8.63
2018-04-24T20:27:08.844Z,7.57
2018-04-24T20:29:37.131Z,7.93
2018-04-24T20:32:05.386Z,9.03
2018-04-24T20:34:33.708Z,9.93
2018-04-24T20:37:02.014Z,8.30
2018-04-24T20:39:30.371Z,9.37
2018-04-24T20:41:58.635Z,7.60
2018-04-24T20:44:26.989Z,7.60
2018-04-24T20:46:55.261Z,6.87
2018-04-24T20:49:24.301Z,8.17
2018-04-24T20:51:52.648Z,7.70
2018-04-24T20:54:20.952Z,6.67
2018-04-24T20:56:49.332Z,6.70
2018-04-24T20:59:17.628Z,5.80
2018-04-24T21:01:45.936Z,8.40
2018-04-24T21:04:14.218Z,8.80
2018-04-24T21:06:42.502Z,8.03
2018-04-24T21:09:10.815Z,7.30
2018-04-24T21:11:39.104Z,9.70
2018-04-24T21:14:08.210Z,10.90
2018-04-24T21:16:36.528Z,9.13
2018-04-24T21:19:05.622Z,7.47
2018-04-24T21:21:34.662Z,6.93
2018-04-24T21:24:02.974Z,9.90
2018-04-24T21:26:31.277Z,8.07
2018-04-24T21:29:00.304Z,8.40
2018-04-24T21:31:28.617Z,8.63
2018-04-24T21:33:56.875Z,8.87
2018-04-24T21:36:25.193Z,8.00
2018-04-24T21:38:53.474Z,7.20
2018-04-24T21:41:22.548Z,7.50
2018-04-24T21:43:50.837Z,8.00
2018-04-24T21:46:19.871Z,8.50
2018-04-24T21:48:48.177Z,6.73
2018-04-24T21:51:16.443Z,10.87
2018-04-24T21:53:44.771Z,9.73
2018-04-24T21:56:13.037Z,10.50
2018-04-24T21:58:41.338Z,7.30
2018-04-24T22:01:10.347Z,7.27
2018-04-24T22:03:38.652Z,6.17
2018-04-24T22:06:06.933Z,8.90
2018-04-24T22:08:35.206Z,7.03
2018-04-24T22:11:03.523Z,6.60
2018-04-24T22:13:31.818Z,6.33
2018-04-24T22:16:03.411Z,8.57
2018-04-24T22:18:31.701Z,8.47
2018-04-24T22:21:00.075Z,8.10
2018-04-24T22:23:28.308Z,7.27
2018-04-24T22:25:57.388Z,7.77
2018-04-24T22:28:25.689Z,7.93
2018-04-24T22:30:54.722Z,7.20
2018-04-24T22:33:22.992Z,6.83
2018-04-24T22:35:51.296Z,7.13
2018-04-24T22:38:19.559Z,7.30
2018-04-24T22:40:47.879Z,7.33
2018-04-24T22:43:16.157Z,6.77
2018-04-24T22:45:44.433Z,7.90
2018-04-24T22:48:12.744Z,7.30
2018-04-24T22:50:41.770Z,8.77
2018-04-24T22:53:10.076Z,7.73
2018-04-24T22:55:38.346Z,7.73
2018-04-24T22:58:06.661Z,7.37
2018-04-24T23:00:34.923Z,9.10
2018-04-24T23:03:03.190Z,6.90
2018-04-24T23:05:31.564Z,6.43
2018-04-24T23:07:59.815Z,8.43
2018-04-24T23:10:40.014Z,8.93
2018-04-24T23:13:26.822Z,10.60
2018-04-24T23:16:13.082Z,9.80
2018-04-24T23:18:59.046Z,8.87
2018-04-24T23:21:32.926Z,7.77
2018-04-24T23:24:01.201Z,7.10
2018-04-24T23:26:29.483Z,7.80
2018-04-24T23:28:57.782Z,7.70
2018-04-24T23:31:26.036Z,7.50
2018-04-24T23:33:54.342Z,10.20
2018-04-24T23:36:22.600Z,7.33
2018-04-24T23:38:50.934Z,8.20
2018-04-24T23:41:19.181Z,8.10
2018-04-24T23:43:47.442Z,10.33
2018-04-24T23:46:16.730Z,9.00
2018-04-24T23:48:45.006Z,10.23
2018-04-24T23:51:13.317Z,7.17
2018-04-24T23:53:41.586Z,7.20
2018-04-24T23:56:09.851Z,7.70
2018-04-24T23:58:38.913Z,8.23
